sensor_id;sensor_type;location;lat;lon;timestamp;pressure;altitude;pressure_sealevel;temperature;humidity
10135;BME280;5107;48.850;8.924;2023-03-14T00:01:09;95161.84;;;9.12;100.00
10135;BME280;5107;48.850;8.924;2023-03-14T00:03:36;95177.78;;;9.17;100.00
10135;BME280;5107;48.850;8.924;2023-03-14T00:06:05;95180.41;;;9.17;100.00
10135;BME280;5107;48.850;8.924;2023-03-14T00:08:32;95185.66;;;9.17;100.00
10135;BME280;5107;48.850;8.924;2023-03-14T00:11:06;95180.59;;;9.16;100.00
10135;BME280;5107;48.850;8.924;2023-03-14T00:13:34;95167.66;;;9.14;100.00
10135;BME280;5107;48.850;8.924;2023-03-14T00:16:05;95174.72;;;9.13;100.00
10135;BME280;5107;48.850;8.924;2023-03-14T00:18:33;95171.72;;;9.10;100.00
10135;BME280;5107;48.850;8.924;2023-03-14T00:21:01;95172.91;;;9.07;100.00
10135;BME280;5107;48.850;8.924;2023-03-14T00:23:31;95174.13;;;9.11;100.00
10135;BME280;5107;48.850;8.924;2023-03-14T00:25:59;95156.97;;;9.09;100.00
10135;BME280;5107;48.850;8.924;2023-03-14T00:28:28;95163.22;;;9.08;100.00
10135;BME280;5107;48.850;8.924;2023-03-14T00:30:56;95164.03;;;9.08;100.00
10135;BME280;5107;48.850;8.924;2023-03-14T00:33:23;95166.22;;;9.05;100.00
10135;BME280;5107;48.850;8.924;2023-03-14T00:35:55;95159.59;;;9.02;100.00
10135;BME280;5107;48.850;8.924;2023-03-14T00:38:22;95165.03;;;9.01;100.00
10135;BME280;5107;48.850;8.924;2023-03-14T00:40:50;95162.22;;;9.02;100.00
10135;BME280;5107;48.850;8.924;2023-03-14T00:43:17;95160.78;;;9.00;100.00
10135;BME280;5107;48.850;8.924;2023-03-14T00:45:46;95160.78;;;9.00;100.00
10135;BME280;5107;48.850;8.924;2023-03-14T00:48:13;95158.16;;;9.00;100.00
10135;BME280;5107;48.850;8.924;2023-03-14T00:50:41;95170.28;;;9.01;100.00
10135;BME280;5107;48.850;8.924;2023-03-14T00:53:08;95171.28;;;9.00;100.00
10135;BME280;5107;48.850;8.924;2023-03-14T00:55:37;95161.78;;;8.99;100.00
10135;BME280;5107;48.850;8.924;2023-03-14T00:58:04;95176.91;;;8.97;100.00
10135;BME280;5107;48.850;8.924;2023-03-14T01:00:32;95186.22;;;8.99;100.00
10135;BME280;5107;48.850;8.924;2023-03-14T01:03:01;95196.50;;;9.01;100.00
10135;BME280;5107;48.850;8.924;2023-03-14T01:05:28;95193.47;;;9.04;100.00
10135;BME280;5107;48.850;8.924;2023-03-14T01:07:56;95191.69;;;9.11;100.00
10135;BME280;5107;48.850;8.924;2023-03-14T01:10:23;95193.09;;;9.13;100.00
10135;BME280;5107;48.850;8.924;2023-03-14T01:12:50;95178.78;;;9.16;100.00
10135;BME280;5107;48.850;8.924;2023-03-14T01:15:18;95180.97;;;9.12;100.00
10135;BME280;5107;48.850;8.924;2023-03-14T01:17:46;95182.00;;;9.11;100.00
10135;BME280;5107;48.850;8.924;2023-03-14T01:20:16;95170.47;;;9.12;100.00
10135;BME280;5107;48.850;8.924;2023-03-14T01:22:43;95165.84;;;9.14;100.00
10135;BME280;5107;48.850;8.924;2023-03-14T01:25:13;95163.03;;;9.16;100.00
10135;BME280;5107;48.850;8.924;2023-03-14T01:27:41;95149.91;;;9.16;100.00
10135;BME280;5107;48.850;8.924;2023-03-14T01:30:12;95133.56;;;9.21;99.59
10135;BME280;5107;48.850;8.924;2023-03-14T01:32:40;95125.50;;;9.22;99.18
10135;BME280;5107;48.850;8.924;2023-03-14T01:35:08;95112.97;;;9.24;98.29
10135;BME280;5107;48.850;8.924;2023-03-14T01:37:36;95105.72;;;9.26;97.96
10135;BME280;5107;48.850;8.924;2023-03-14T01:40:09;95096.03;;;9.27;97.47
10135;BME280;5107;48.850;8.924;2023-03-14T01:42:36;95079.88;;;9.23;98.02
10135;BME280;5107;48.850;8.924;2023-03-14T01:45:05;95080.09;;;9.28;96.49
10135;BME280;5107;48.850;8.924;2023-03-14T01:47:32;95079.47;;;9.26;96.53
10135;BME280;5107;48.850;8.924;2023-03-14T01:50:03;95083.31;;;9.24;96.76
10135;BME280;5107;48.850;8.924;2023-03-14T01:52:34;95084.13;;;9.24;96.41
10135;BME280;5107;48.850;8.924;2023-03-14T01:55:07;95081.06;;;9.21;96.68
10135;BME280;5107;48.850;8.924;2023-03-14T01:57:37;95072.81;;;9.17;96.95
10135;BME280;5107;48.850;8.924;2023-03-14T02:00:09;95069.78;;;9.13;96.67
10135;BME280;5107;48.850;8.924;2023-03-14T02:02:45;95084.94;;;9.11;96.68
10135;BME280;5107;48.850;8.924;2023-03-14T02:05:18;95081.50;;;9.11;96.78
10135;BME280;5107;48.850;8.924;2023-03-14T02:07:54;95088.75;;;9.09;96.63
10135;BME280;5107;48.850;8.924;2023-03-14T02:10:30;95080.47;;;9.05;97.29
10135;BME280;5107;48.850;8.924;2023-03-14T02:13:04;95084.72;;;9.06;96.26
10135;BME280;5107;48.850;8.924;2023-03-14T02:15:56;95074.63;;;9.10;96.06
10135;BME280;5107;48.850;8.924;2023-03-14T02:18:41;95066.34;;;9.06;95.94
10135;BME280;5107;48.850;8.924;2023-03-14T02:21:35;95078.03;;;9.04;95.70
10135;BME280;5107;48.850;8.924;2023-03-14T02:24:13;95063.34;;;9.09;94.21
10135;BME280;5107;48.850;8.924;2023-03-14T02:27:06;95052.41;;;9.12;93.25
10135;BME280;5107;48.850;8.924;2023-03-14T02:29:41;95044.53;;;9.12;92.72
10135;BME280;5107;48.850;8.924;2023-03-14T02:32:13;95041.91;;;9.12;91.96
10135;BME280;5107;48.850;8.924;2023-03-14T02:34:42;95048.19;;;9.11;91.64
10135;BME280;5107;48.850;8.924;2023-03-14T02:37:14;95047.16;;;9.12;91.40
10135;BME280;5107;48.850;8.924;2023-03-14T02:39:45;95044.53;;;9.06;92.17
10135;BME280;5107;48.850;8.924;2023-03-14T02:42:16;95045.78;;;9.10;91.47
10135;BME280;5107;48.850;8.924;2023-03-14T02:44:53;95037.09;;;9.09;91.13
10135;BME280;5107;48.850;8.924;2023-03-14T02:47:26;95021.75;;;9.13;90.19
10135;BME280;5107;48.850;8.924;2023-03-14T02:49:59;95034.28;;;9.11;90.39
10135;BME280;5107;48.850;8.924;2023-03-14T02:52:29;95018.94;;;9.08;90.47
10135;BME280;5107;48.850;8.924;2023-03-14T02:54:56;95013.28;;;9.11;90.05
10135;BME280;5107;48.850;8.924;2023-03-14T02:57:26;95012.06;;;9.07;90.23
10135;BME280;5107;48.850;8.924;2023-03-14T02:59:53;95001.19;;;9.03;90.08
10135;BME280;5107;48.850;8.924;2023-03-14T03:02:20;94983.81;;;9.09;89.50
10135;BME280;5107;48.850;8.924;2023-03-14T03:04:47;94977.97;;;9.07;89.48
10135;BME280;5107;48.850;8.924;2023-03-14T03:07:17;94989.47;;;9.06;89.54
10135;BME280;5107;48.850;8.924;2023-03-14T03:09:45;94977.78;;;9.02;89.66
10135;BME280;5107;48.850;8.924;2023-03-14T03:12:12;94972.09;;;9.05;89.12
10135;BME280;5107;48.850;8.924;2023-03-14T03:14:40;94964.66;;;8.95;89.87
10135;BME280;5107;48.850;8.924;2023-03-14T03:17:08;94957.56;;;8.96;89.48
10135;BME280;5107;48.850;8.924;2023-03-14T03:19:36;94938.63;;;8.94;89.42
10135;BME280;5107;48.850;8.924;2023-03-14T03:22:03;94936.81;;;8.94;88.80
10135;BME280;5107;48.850;8.924;2023-03-14T03:24:30;94933.19;;;8.95;88.14
10135;BME280;5107;48.850;8.924;2023-03-14T03:26:57;94939.63;;;8.93;88.01
10135;BME280;5107;48.850;8.924;2023-03-14T03:29:24;94938.22;;;8.97;86.96
10135;BME280;5107;48.850;8.924;2023-03-14T03:31:53;94935.00;;;8.95;86.54
10135;BME280;5107;48.850;8.924;2023-03-14T03:34:20;94936.19;;;8.99;86.26
10135;BME280;5107;48.850;8.924;2023-03-14T03:36:50;94925.50;;;9.00;85.68
10135;BME280;5107;48.850;8.924;2023-03-14T03:39:17;94925.50;;;9.00;85.18
10135;BME280;5107;48.850;8.924;2023-03-14T03:41:47;94918.47;;;8.94;85.75
10135;BME280;5107;48.850;8.924;2023-03-14T03:44:14;94911.63;;;8.87;85.86
10135;BME280;5107;48.850;8.924;2023-03-14T03:46:41;94908.56;;;8.90;85.35
10135;BME280;5107;48.850;8.924;2023-03-14T03:49:10;94902.94;;;8.93;84.52
10135;BME280;5107;48.850;8.924;2023-03-14T03:51:37;94913.19;;;8.88;84.86
10135;BME280;5107;48.850;8.924;2023-03-14T03:54:04;94912.63;;;8.86;84.23
10135;BME280;5107;48.850;8.924;2023-03-14T03:56:33;94898.50;;;8.87;83.37
10135;BME280;5107;48.850;8.924;2023-03-14T03:59:00;94903.75;;;8.87;83.79
10135;BME280;5107;48.850;8.924;2023-03-14T04:01:27;94896.47;;;8.82;83.68
10135;BME280;5107;48.850;8.924;2023-03-14T04:03:56;94900.31;;;8.80;83.53
10135;BME280;5107;48.850;8.924;2023-03-14T04:06:26;94903.53;;;8.82;83.54
10135;BME280;5107;48.850;8.924;2023-03-14T04:08:57;94895.88;;;8.80;83.10
10135;BME280;5107;48.850;8.924;2023-03-14T04:11:34;94901.72;;;8.75;83.18
10135;BME280;5107;48.850;8.924;2023-03-14T04:14:20;94911.00;;;8.71;83.50
10135;BME280;5107;48.850;8.924;2023-03-14T04:16:49;94900.75;;;8.70;83.18
10135;BME280;5107;48.850;8.924;2023-03-14T04:19:20;94902.94;;;8.66;83.14
10135;BME280;5107;48.850;8.924;2023-03-14T04:21:49;94896.91;;;8.59;83.65
10135;BME280;5107;48.850;8.924;2023-03-14T04:24:18;94890.84;;;8.65;82.70
10135;BME280;5107;48.850;8.924;2023-03-14T04:26:48;94892.28;;;8.61;82.69
10135;BME280;5107;48.850;8.924;2023-03-14T04:29:15;94901.94;;;8.67;81.72
10135;BME280;5107;48.850;8.924;2023-03-14T04:31:44;94897.09;;;8.71;81.49
10135;BME280;5107;48.850;8.924;2023-03-14T04:34:11;94899.94;;;8.69;81.20
10135;BME280;5107;48.850;8.924;2023-03-14T04:36:45;94882.19;;;8.58;82.40
10135;BME280;5107;48.850;8.924;2023-03-14T04:39:18;94880.75;;;8.62;82.31
10135;BME280;5107;48.850;8.924;2023-03-14T04:41:53;94883.19;;;8.57;82.50
10135;BME280;5107;48.850;8.924;2023-03-14T04:44:20;94865.25;;;8.48;83.10
10135;BME280;5107;48.850;8.924;2023-03-14T04:46:50;94865.66;;;8.51;82.94
10135;BME280;5107;48.850;8.924;2023-03-14T04:49:17;94873.09;;;8.54;82.57
10135;BME280;5107;48.850;8.924;2023-03-14T04:51:44;94868.47;;;8.56;82.27
10135;BME280;5107;48.850;8.924;2023-03-14T04:54:11;94878.16;;;8.56;82.41
10135;BME280;5107;48.850;8.924;2023-03-14T04:56:40;94878.34;;;8.54;82.66
10135;BME280;5107;48.850;8.924;2023-03-14T04:59:08;94874.72;;;8.55;82.23
10135;BME280;5107;48.850;8.924;2023-03-14T05:01:37;94863.63;;;8.60;81.68
10135;BME280;5107;48.850;8.924;2023-03-14T05:04:25;94866.84;;;8.55;82.02
10135;BME280;5107;48.850;8.924;2023-03-14T05:07:21;94855.19;;;8.51;82.01
10135;BME280;5107;48.850;8.924;2023-03-14T05:10:09;94861.63;;;8.55;82.04
10135;BME280;5107;48.850;8.924;2023-03-14T05:12:56;94866.03;;;8.55;81.86
10135;BME280;5107;48.850;8.924;2023-03-14T05:15:42;94861.22;;;8.52;82.18
10135;BME280;5107;48.850;8.924;2023-03-14T05:18:21;94851.13;;;8.49;82.43
10135;BME280;5107;48.850;8.924;2023-03-14T05:20:56;94841.84;;;8.46;82.48
10135;BME280;5107;48.850;8.924;2023-03-14T05:23:45;94840.66;;;8.42;82.79
10135;BME280;5107;48.850;8.924;2023-03-14T05:26:14;94836.84;;;8.45;82.39
10135;BME280;5107;48.850;8.924;2023-03-14T05:29:19;94836.63;;;8.46;82.14
10135;BME280;5107;48.850;8.924;2023-03-14T05:32:04;94851.53;;;8.46;82.14
10135;BME280;5107;48.850;8.924;2023-03-14T05:34:44;94847.13;;;8.53;81.56
10135;BME280;5107;48.850;8.924;2023-03-14T05:37:31;94850.75;;;8.52;82.00
10135;BME280;5107;48.850;8.924;2023-03-14T05:40:24;94834.81;;;8.53;81.84
10135;BME280;5107;48.850;8.924;2023-03-14T05:43:04;94837.00;;;8.56;81.58
10135;BME280;5107;48.850;8.924;2023-03-14T05:45:52;94830.16;;;8.55;82.21
10135;BME280;5107;48.850;8.924;2023-03-14T05:48:39;94826.16;;;8.53;82.00
10135;BME280;5107;48.850;8.924;2023-03-14T05:51:09;94834.41;;;8.56;81.79
10135;BME280;5107;48.850;8.924;2023-03-14T05:53:45;94813.63;;;8.55;81.78
10135;BME280;5107;48.850;8.924;2023-03-14T05:56:32;94816.47;;;8.53;82.02
10135;BME280;5107;48.850;8.924;2023-03-14T05:59:14;94813.63;;;8.48;82.32
10135;BME280;5107;48.850;8.924;2023-03-14T06:01:52;94799.34;;;8.44;82.70
10135;BME280;5107;48.850;8.924;2023-03-14T06:04:24;94793.47;;;8.49;82.04
10135;BME280;5107;48.850;8.924;2023-03-14T06:06:55;94810.44;;;8.53;81.81
10135;BME280;5107;48.850;8.924;2023-03-14T06:09:23;94802.31;;;8.54;81.47
10135;BME280;5107;48.850;8.924;2023-03-14T06:11:52;94810.81;;;8.56;81.57
10135;BME280;5107;48.850;8.924;2023-03-14T06:14:19;94807.56;;;8.54;81.42
10135;BME280;5107;48.850;8.924;2023-03-14T06:16:48;94806.19;;;8.52;81.65
10135;BME280;5107;48.850;8.924;2023-03-14T06:19:19;94813.63;;;8.55;81.15
10135;BME280;5107;48.850;8.924;2023-03-14T06:21:47;94812.59;;;8.62;80.54
10135;BME280;5107;48.850;8.924;2023-03-14T06:24:14;94820.47;;;8.62;80.78
10135;BME280;5107;48.850;8.924;2023-03-14T06:26:46;94824.09;;;8.68;80.21
10135;BME280;5107;48.850;8.924;2023-03-14T06:29:14;94819.66;;;8.68;80.02
10135;BME280;5107;48.850;8.924;2023-03-14T06:31:41;94833.75;;;8.74;79.42
10135;BME280;5107;48.850;8.924;2023-03-14T06:34:09;94824.06;;;8.81;79.11
10135;BME280;5107;48.850;8.924;2023-03-14T06:36:39;94814.72;;;8.98;78.01
10135;BME280;5107;48.850;8.924;2023-03-14T06:39:07;94817.09;;;9.13;77.08
10135;BME280;5107;48.850;8.924;2023-03-14T06:41:38;94819.13;;;9.11;77.57
10135;BME280;5107;48.850;8.924;2023-03-14T06:44:07;94826.34;;;9.22;76.87
10135;BME280;5107;48.850;8.924;2023-03-14T06:46:34;94819.41;;;9.41;76.18
10135;BME280;5107;48.850;8.924;2023-03-14T06:49:02;94816.50;;;9.56;75.75
10135;BME280;5107;48.850;8.924;2023-03-14T06:51:30;94824.50;;;9.67;75.25
10135;BME280;5107;48.850;8.924;2023-03-14T06:53:59;94820.22;;;9.73;75.46
10135;BME280;5107;48.850;8.924;2023-03-14T06:56:27;94816.53;;;9.87;75.28
10135;BME280;5107;48.850;8.924;2023-03-14T06:58:56;94813.41;;;9.97;74.16
10135;BME280;5107;48.850;8.924;2023-03-14T07:01:28;94810.56;;;9.98;73.90
10135;BME280;5107;48.850;8.924;2023-03-14T07:04:03;94823.66;;;10.05;73.99
10135;BME280;5107;48.850;8.924;2023-03-14T07:06:32;94817.13;;;10.14;74.12
10135;BME280;5107;48.850;8.924;2023-03-14T07:09:01;94817.97;;;10.08;73.21
10135;BME280;5107;48.850;8.924;2023-03-14T07:11:28;94823.03;;;10.09;74.49
10135;BME280;5107;48.850;8.924;2023-03-14T07:13:55;94826.09;;;10.31;73.49
10135;BME280;5107;48.850;8.924;2023-03-14T07:16:22;94830.03;;;10.47;72.74
10135;BME280;5107;48.850;8.924;2023-03-14T07:18:51;94829.19;;;10.53;72.51
10135;BME280;5107;48.850;8.924;2023-03-14T07:21:20;94822.75;;;10.67;72.08
10135;BME280;5107;48.850;8.924;2023-03-14T07:23:48;94829.22;;;10.71;72.22
10135;BME280;5107;48.850;8.924;2023-03-14T07:26:17;94830.50;;;10.80;71.16
10135;BME280;5107;48.850;8.924;2023-03-14T07:28:48;94830.88;;;10.65;71.58
10135;BME280;5107;48.850;8.924;2023-03-14T07:31:18;94841.00;;;10.87;71.77
10135;BME280;5107;48.850;8.924;2023-03-14T07:33:46;94840.22;;;11.05;70.70
10135;BME280;5107;48.850;8.924;2023-03-14T07:36:13;94835.06;;;11.10;69.91
10135;BME280;5107;48.850;8.924;2023-03-14T07:38:43;94845.75;;;11.33;69.67
10135;BME280;5107;48.850;8.924;2023-03-14T07:41:10;94842.50;;;11.49;68.62
10135;BME280;5107;48.850;8.924;2023-03-14T07:43:47;94833.97;;;11.65;67.93
10135;BME280;5107;48.850;8.924;2023-03-14T07:46:14;94838.31;;;11.60;67.45
10135;BME280;5107;48.850;8.924;2023-03-14T07:48:43;94836.03;;;11.63;67.55
10135;BME280;5107;48.850;8.924;2023-03-14T07:51:10;94839.72;;;11.62;66.81
10135;BME280;5107;48.850;8.924;2023-03-14T07:53:37;94840.59;;;11.56;67.01
10135;BME280;5107;48.850;8.924;2023-03-14T07:56:06;94844.25;;;11.55;66.79
10135;BME280;5107;48.850;8.924;2023-03-14T07:58:33;94844.31;;;11.67;66.50
10135;BME280;5107;48.850;8.924;2023-03-14T08:01:01;94836.41;;;11.67;66.76
10135;BME280;5107;48.850;8.924;2023-03-14T08:03:29;94845.84;;;11.74;65.94
10135;BME280;5107;48.850;8.924;2023-03-14T08:05:56;94853.00;;;11.86;67.11
10135;BME280;5107;48.850;8.924;2023-03-14T08:08:23;94844.69;;;11.70;67.09
10135;BME280;5107;48.850;8.924;2023-03-14T08:10:50;94843.81;;;11.58;67.53
10135;BME280;5107;48.850;8.924;2023-03-14T08:13:18;94853.84;;;11.31;67.35
10135;BME280;5107;48.850;8.924;2023-03-14T08:15:48;94845.00;;;11.26;67.06
10135;BME280;5107;48.850;8.924;2023-03-14T08:18:18;94839.97;;;11.43;65.89
10135;BME280;5107;48.850;8.924;2023-03-14T08:20:45;94863.88;;;11.41;66.23
10135;BME280;5107;48.850;8.924;2023-03-14T08:23:12;94854.19;;;11.71;65.53
10135;BME280;5107;48.850;8.924;2023-03-14T08:25:39;94852.53;;;11.89;64.25
10135;BME280;5107;48.850;8.924;2023-03-14T08:28:06;94863.03;;;11.95;65.15
10135;BME280;5107;48.850;8.924;2023-03-14T08:30:33;94852.72;;;12.05;63.29
10135;BME280;5107;48.850;8.924;2023-03-14T08:33:01;94845.13;;;11.97;63.67
10135;BME280;5107;48.850;8.924;2023-03-14T08:35:29;94857.91;;;11.82;65.41
10135;BME280;5107;48.850;8.924;2023-03-14T08:37:58;94873.06;;;11.87;65.96
10135;BME280;5107;48.850;8.924;2023-03-14T08:40:25;94860.00;;;11.62;64.99
10135;BME280;5107;48.850;8.924;2023-03-14T08:42:52;94866.38;;;11.36;65.26
10135;BME280;5107;48.850;8.924;2023-03-14T08:45:19;94873.03;;;11.20;66.31
10135;BME280;5107;48.850;8.924;2023-03-14T08:47:47;94872.22;;;11.01;67.42
10135;BME280;5107;48.850;8.924;2023-03-14T08:52:43;94872.50;;;10.93;67.70
10135;BME280;5107;48.850;8.924;2023-03-14T08:55:10;94868.16;;;10.81;68.80
10135;BME280;5107;48.850;8.924;2023-03-14T08:57:38;94886.50;;;10.69;69.47
10135;BME280;5107;48.850;8.924;2023-03-14T09:00:07;94880.22;;;10.70;70.01
10135;BME280;5107;48.850;8.924;2023-03-14T09:02:38;94880.31;;;10.57;70.70
10135;BME280;5107;48.850;8.924;2023-03-14T09:05:06;94895.00;;;10.40;73.59
10135;BME280;5107;48.850;8.924;2023-03-14T09:07:33;94903.53;;;10.35;74.09
10135;BME280;5107;48.850;8.924;2023-03-14T09:10:02;94890.44;;;10.29;73.52
10135;BME280;5107;48.850;8.924;2023-03-14T09:12:29;94913.88;;;10.30;75.01
10135;BME280;5107;48.850;8.924;2023-03-14T09:14:56;94916.94;;;10.27;74.77
10135;BME280;5107;48.850;8.924;2023-03-14T09:17:24;94921.59;;;10.25;73.66
10135;BME280;5107;48.850;8.924;2023-03-14T09:19:51;94916.34;;;10.25;74.57
10135;BME280;5107;48.850;8.924;2023-03-14T09:22:18;94915.94;;;10.28;74.03
10135;BME280;5107;48.850;8.924;2023-03-14T09:24:46;94921.19;;;10.28;73.72
10135;BME280;5107;48.850;8.924;2023-03-14T09:27:15;94938.34;;;10.31;73.92
10135;BME280;5107;48.850;8.924;2023-03-14T09:29:42;94930.84;;;10.34;74.07
10135;BME280;5107;48.850;8.924;2023-03-14T09:32:09;94940.13;;;10.37;74.34
10135;BME280;5107;48.850;8.924;2023-03-14T09:34:36;94944.19;;;10.33;74.43
10135;BME280;5107;48.850;8.924;2023-03-14T09:37:03;94944.59;;;10.36;74.73
10135;BME280;5107;48.850;8.924;2023-03-14T09:39:30;94955.47;;;10.40;74.57
10135;BME280;5107;48.850;8.924;2023-03-14T09:42:02;94950.91;;;10.29;74.48
10135;BME280;5107;48.850;8.924;2023-03-14T09:44:35;94963.44;;;10.26;75.30
10135;BME280;5107;48.850;8.924;2023-03-14T09:47:07;94961.03;;;10.25;75.01
10135;BME280;5107;48.850;8.924;2023-03-14T09:49:40;94957.72;;;10.36;76.09
10135;BME280;5107;48.850;8.924;2023-03-14T09:52:14;94949.66;;;10.38;74.85
10135;BME280;5107;48.850;8.924;2023-03-14T09:54:45;94946.72;;;10.52;75.02
10135;BME280;5107;48.850;8.924;2023-03-14T09:57:16;94963.13;;;10.73;74.18
10135;BME280;5107;48.850;8.924;2023-03-14T09:59:47;94953.16;;;10.81;74.94
10135;BME280;5107;48.850;8.924;2023-03-14T10:02:20;94936.72;;;11.11;73.20
10135;BME280;5107;48.850;8.924;2023-03-14T10:04:49;94933.38;;;11.58;71.55
10135;BME280;5107;48.850;8.924;2023-03-14T10:07:20;94927.00;;;11.66;69.88
10135;BME280;5107;48.850;8.924;2023-03-14T10:09:50;94924.97;;;11.50;69.49
10135;BME280;5107;48.850;8.924;2023-03-14T10:12:19;94929.78;;;11.53;71.13
10135;BME280;5107;48.850;8.924;2023-03-14T10:14:50;94917.44;;;11.35;70.17
10135;BME280;5107;48.850;8.924;2023-03-14T10:17:20;94923.91;;;11.14;70.02
10135;BME280;5107;48.850;8.924;2023-03-14T10:19:56;94922.63;;;10.98;71.64
10135;BME280;5107;48.850;8.924;2023-03-14T10:22:27;94926.41;;;10.84;73.34
10135;BME280;5107;48.850;8.924;2023-03-14T10:24:59;94921.78;;;10.80;75.32
10135;BME280;5107;48.850;8.924;2023-03-14T10:27:30;94931.00;;;10.71;75.96
10135;BME280;5107;48.850;8.924;2023-03-14T10:30:03;94920.81;;;10.74;74.46
10135;BME280;5107;48.850;8.924;2023-03-14T10:32:34;94927.78;;;11.12;75.32
10135;BME280;5107;48.850;8.924;2023-03-14T10:35:20;94934.94;;;11.05;73.29
10135;BME280;5107;48.850;8.924;2023-03-14T10:37:52;94931.94;;;11.01;73.09
10135;BME280;5107;48.850;8.924;2023-03-14T10:40:27;94941.28;;;10.97;74.37
10135;BME280;5107;48.850;8.924;2023-03-14T10:42:57;94946.28;;;10.80;75.20
10135;BME280;5107;48.850;8.924;2023-03-14T10:45:38;94939.94;;;10.63;76.46
10135;BME280;5107;48.850;8.924;2023-03-14T10:48:18;94951.22;;;10.39;77.12
10135;BME280;5107;48.850;8.924;2023-03-14T10:50:54;94952.94;;;10.26;78.81
10135;BME280;5107;48.850;8.924;2023-03-14T10:53:22;94959.25;;;10.12;82.25
10135;BME280;5107;48.850;8.924;2023-03-14T10:55:50;94977.91;;;9.98;84.04
10135;BME280;5107;48.850;8.924;2023-03-14T10:58:26;94965.03;;;9.83;81.39
10135;BME280;5107;48.850;8.924;2023-03-14T11:01:02;94977.56;;;9.81;84.59
10135;BME280;5107;48.850;8.924;2023-03-14T11:03:35;94987.69;;;9.77;85.45
10135;BME280;5107;48.850;8.924;2023-03-14T11:06:09;94981.09;;;9.62;83.27
10135;BME280;5107;48.850;8.924;2023-03-14T11:08:45;94988.16;;;9.55;84.70
10135;BME280;5107;48.850;8.924;2023-03-14T11:11:19;94982.72;;;9.49;84.07
10135;BME280;5107;48.850;8.924;2023-03-14T11:14:03;94986.00;;;9.45;83.18
10135;BME280;5107;48.850;8.924;2023-03-14T11:16:45;94992.03;;;9.45;84.56
10135;BME280;5107;48.850;8.924;2023-03-14T11:19:43;94994.66;;;9.45;85.28
10135;BME280;5107;48.850;8.924;2023-03-14T11:22:21;94984.75;;;9.47;85.98
10135;BME280;5107;48.850;8.924;2023-03-14T11:25:18;94981.72;;;9.50;84.05
10135;BME280;5107;48.850;8.924;2023-03-14T11:27:58;94991.81;;;9.54;83.82
10135;BME280;5107;48.850;8.924;2023-03-14T11:30:34;94992.00;;;9.59;84.60
10135;BME280;5107;48.850;8.924;2023-03-14T11:33:13;94994.81;;;9.64;84.16
10135;BME280;5107;48.850;8.924;2023-03-14T11:35:47;94983.50;;;9.63;82.93
10135;BME280;5107;48.850;8.924;2023-03-14T11:38:32;94991.00;;;9.60;83.15
10135;BME280;5107;48.850;8.924;2023-03-14T11:41:02;94995.22;;;9.54;83.85
10135;BME280;5107;48.850;8.924;2023-03-14T11:43:35;95005.75;;;9.47;83.12
10135;BME280;5107;48.850;8.924;2023-03-14T11:46:10;95009.00;;;9.43;83.50
10135;BME280;5107;48.850;8.924;2023-03-14T11:48:48;95010.81;;;9.42;83.41
10135;BME280;5107;48.850;8.924;2023-03-14T11:51:25;95012.84;;;9.40;83.92
10135;BME280;5107;48.850;8.924;2023-03-14T11:54:01;95020.09;;;9.38;83.31
10135;BME280;5107;48.850;8.924;2023-03-14T11:56:34;95031.41;;;9.39;84.70
10135;BME280;5107;48.850;8.924;2023-03-14T11:59:14;95035.03;;;9.38;86.19
10135;BME280;5107;48.850;8.924;2023-03-14T12:01:54;95033.44;;;9.30;86.99
10135;BME280;5107;48.850;8.924;2023-03-14T12:04:47;95052.84;;;9.16;88.99
10135;BME280;5107;48.850;8.924;2023-03-14T12:07:20;95067.16;;;9.07;89.90
10135;BME280;5107;48.850;8.924;2023-03-14T12:09:50;95073.81;;;9.03;89.77
10135;BME280;5107;48.850;8.924;2023-03-14T12:12:21;95081.69;;;9.03;89.94
10135;BME280;5107;48.850;8.924;2023-03-14T12:14:55;95072.78;;;9.04;86.96
10135;BME280;5107;48.850;8.924;2023-03-14T12:17:26;95099.22;;;8.96;87.46
10135;BME280;5107;48.850;8.924;2023-03-14T12:20:15;95112.94;;;8.78;87.32
10135;BME280;5107;48.850;8.924;2023-03-14T12:22:44;95127.41;;;8.67;87.24
10135;BME280;5107;48.850;8.924;2023-03-14T12:25:18;95147.13;;;8.50;84.30
10135;BME280;5107;48.850;8.924;2023-03-14T12:28:02;95136.47;;;8.24;81.27
10135;BME280;5107;48.850;8.924;2023-03-14T12:30:32;95147.56;;;7.85;76.20
10135;BME280;5107;48.850;8.924;2023-03-14T12:33:33;95172.31;;;7.82;75.12
10135;BME280;5107;48.850;8.924;2023-03-14T12:36:18;95167.72;;;8.19;74.41
10135;BME280;5107;48.850;8.924;2023-03-14T12:39:05;95174.94;;;8.51;72.35
10135;BME280;5107;48.850;8.924;2023-03-14T12:41:40;95182.91;;;8.78;70.21
10135;BME280;5107;48.850;8.924;2023-03-14T12:44:39;95142.84;;;9.17;67.13
10135;BME280;5107;48.850;8.924;2023-03-14T12:47:50;95179.78;;;9.15;65.92
10135;BME280;5107;48.850;8.924;2023-03-14T12:50:34;95171.72;;;9.30;63.52
10135;BME280;5107;48.850;8.924;2023-03-14T12:53:39;95135.41;;;9.60;61.61
10135;BME280;5107;48.850;8.924;2023-03-14T12:56:23;95172.97;;;9.40;61.33
10135;BME280;5107;48.850;8.924;2023-03-14T13:01:53;95184.41;;;9.13;60.21
10135;BME280;5107;48.850;8.924;2023-03-14T13:04:29;95208.44;;;9.17;61.43
10135;BME280;5107;48.850;8.924;2023-03-14T13:07:00;95215.09;;;9.12;60.24
10135;BME280;5107;48.850;8.924;2023-03-14T13:09:53;95232.13;;;9.43;61.17
10135;BME280;5107;48.850;8.924;2023-03-14T13:12:34;95233.06;;;9.16;57.22
10135;BME280;5107;48.850;8.924;2023-03-14T13:15:17;95247.06;;;8.82;56.66
10135;BME280;5107;48.850;8.924;2023-03-14T13:17:47;95256.63;;;8.55;54.59
10135;BME280;5107;48.850;8.924;2023-03-14T13:20:20;95290.66;;;8.48;55.65
10135;BME280;5107;48.850;8.924;2023-03-14T13:22:50;95286.00;;;8.44;55.25
10135;BME280;5107;48.850;8.924;2023-03-14T13:25:18;95308.97;;;8.42;55.67
10135;BME280;5107;48.850;8.924;2023-03-14T13:27:48;95307.16;;;8.42;55.42
10135;BME280;5107;48.850;8.924;2023-03-14T13:30:22;95312.16;;;8.37;54.45
10135;BME280;5107;48.850;8.924;2023-03-14T13:32:51;95333.72;;;8.39;55.25
10135;BME280;5107;48.850;8.924;2023-03-14T13:35:24;95335.25;;;8.55;55.54
10135;BME280;5107;48.850;8.924;2023-03-14T13:37:57;95354.53;;;8.68;54.99
10135;BME280;5107;48.850;8.924;2023-03-14T13:40:31;95366.63;;;8.69;54.48
10135;BME280;5107;48.850;8.924;2023-03-14T13:43:04;95364.53;;;8.58;54.01
10135;BME280;5107;48.850;8.924;2023-03-14T13:45:49;95360.09;;;8.59;54.43
10135;BME280;5107;48.850;8.924;2023-03-14T13:48:17;95367.69;;;8.26;54.00
10135;BME280;5107;48.850;8.924;2023-03-14T13:50:54;95402.81;;;8.31;54.48